Time;durP1;ratioP1;P1;durP2;ratioP2;P2;SDS_P1;SDS_P2;PMS_P1;PMS_P2;Temp;Humidity;BMP_temperature;BMP_pressure;BME280_temperature;BME280_humidity;BME280_pressure;Samples;Min_cycle;Max_cycle;Signal;HPM_P1;HPM_P2
2023/04/16 00:02:05;;;;;;;13.93;3.20;;;7.70;99.90;;;;;;5033359;28;20293;-52
2023/04/16 00:04:31;;;;;;;14.57;3.47;;;7.70;99.90;;;;;;5046123;28;20706;-52
2023/04/16 00:06:56;;;;;;;6.63;3.47;;;7.70;99.90;;;;;;5036644;28;20187;-52
2023/04/16 00:09:22;;;;;;;8.07;3.07;;;7.70;99.90;;;;;;5035417;28;20185;-51
2023/04/16 00:11:47;;;;;;;9.90;3.20;;;7.70;99.90;;;;;;5035383;28;20210;-52
2023/04/16 00:14:13;;;;;;;6.97;2.97;;;7.70;99.90;;;;;;5035473;28;20176;-52
2023/04/16 00:16:38;;;;;;;9.03;3.47;;;7.70;99.90;;;;;;5034770;28;20231;-52
2023/04/16 00:19:04;;;;;;;9.73;3.23;;;7.70;99.90;;;;;;5034958;28;20268;-50
2023/04/16 00:21:30;;;;;;;9.83;3.07;;;7.70;99.90;;;;;;5034841;28;20291;-51
2023/04/16 00:23:55;;;;;;;10.77;3.43;;;7.70;99.90;;;;;;5034850;28;20183;-53
2023/04/16 00:26:21;;;;;;;7.90;3.30;;;7.70;99.90;;;;;;5035076;28;20227;-51
2023/04/16 00:28:46;;;;;;;15.27;3.40;;;7.70;99.90;;;;;;5034779;28;20233;-50
2023/04/16 00:31:12;;;;;;;13.77;3.77;;;7.70;99.90;;;;;;5034343;28;20208;-52
2023/04/16 00:33:38;;;;;;;8.30;3.70;;;7.70;99.90;;;;;;5034387;28;20181;-50
2023/04/16 00:36:04;;;;;;;9.03;3.30;;;7.70;99.90;;;;;;5034899;28;20183;-50
2023/04/16 00:38:31;;;;;;;10.47;3.87;;;7.70;99.90;;;;;;5034579;28;20215;-51
2023/04/16 00:40:59;;;;;;;8.10;3.03;;;7.70;99.90;;;;;;5034251;28;20180;-51
2023/04/16 00:43:26;;;;;;;12.60;3.63;;;7.70;99.90;;;;;;5034258;28;20179;-53
2023/04/16 00:45:54;;;;;;;11.67;3.73;;;7.70;99.90;;;;;;5034421;28;20183;-52
2023/04/16 00:48:21;;;;;;;8.40;4.00;;;7.70;99.90;;;;;;5034104;28;20202;-50
2023/04/16 00:50:47;;;;;;;9.00;4.13;;;7.70;99.90;;;;;;5034004;28;20295;-51
2023/04/16 00:53:13;;;;;;;8.90;3.80;;;7.70;99.90;;;;;;5033589;28;20202;-53
2023/04/16 00:55:39;;;;;;;8.87;4.13;;;7.70;99.90;;;;;;5034234;28;20532;-50
2023/04/16 00:58:05;;;;;;;6.73;4.00;;;7.70;99.90;;;;;;5034226;28;20188;-53
2023/04/16 01:00:31;;;;;;;9.73;4.00;;;7.70;99.90;;;;;;5033909;28;20684;-52
2023/04/16 01:02:58;;;;;;;10.07;4.10;;;7.70;99.90;;;;;;5034088;28;20211;-53
2023/04/16 01:05:24;;;;;;;8.70;3.70;;;7.70;99.90;;;;;;5033788;28;20643;-50
2023/04/16 01:07:51;;;;;;;9.87;4.33;;;7.70;99.90;;;;;;5033941;28;20234;-50
2023/04/16 01:10:16;;;;;;;9.17;3.57;;;7.70;99.90;;;;;;5034222;28;20555;-53
2023/04/16 01:12:42;;;;;;;10.33;4.30;;;7.70;99.90;;;;;;5033705;28;20199;-52
2023/04/16 01:15:08;;;;;;;10.53;4.07;;;7.70;99.90;;;;;;5033724;28;20702;-51
2023/04/16 01:17:33;;;;;;;9.60;4.10;;;7.70;99.90;;;;;;5033825;28;20656;-49
2023/04/16 01:19:59;;;;;;;15.90;4.43;;;7.70;99.90;;;;;;5034150;28;20513;-47
2023/04/16 01:22:26;;;;;;;8.80;3.77;;;7.70;99.90;;;;;;5033632;28;20230;-49
2023/04/16 01:24:51;;;;;;;16.50;5.00;;;7.70;99.90;;;;;;5033557;28;20189;-47
2023/04/16 01:27:17;;;;;;;14.63;4.60;;;7.70;99.90;;;;;;5033576;28;20231;-47
2023/04/16 01:29:42;;;;;;;9.27;4.30;;;7.70;99.90;;;;;;5034053;28;20217;-46
2023/04/16 01:32:08;;;;;;;11.13;4.30;;;7.70;99.90;;;;;;5033464;28;20238;-47
2023/04/16 01:34:34;;;;;;;10.63;4.50;;;7.70;99.90;;;;;;5033664;28;20208;-45
2023/04/16 01:36:59;;;;;;;9.53;4.10;;;7.70;99.90;;;;;;5033704;28;20187;-47
2023/04/16 01:39:25;;;;;;;8.97;3.67;;;7.70;99.90;;;;;;5033394;28;20176;-48
2023/04/16 01:41:50;;;;;;;8.27;4.40;;;7.70;99.90;;;;;;5033286;28;20206;-46
2023/04/16 01:44:16;;;;;;;12.37;4.80;;;7.70;99.90;;;;;;5033368;28;20185;-48
2023/04/16 01:46:42;;;;;;;12.07;4.40;;;7.70;99.90;;;;;;5033336;28;20677;-47
2023/04/16 01:49:08;;;;;;;10.73;5.03;;;7.70;99.90;;;;;;5033331;28;20319;-47
2023/04/16 01:51:33;;;;;;;10.33;5.03;;;7.70;99.90;;;;;;5033153;28;20304;-48
2023/04/16 01:54:00;;;;;;;6.60;4.63;;;7.70;99.90;;;;;;5033261;28;20189;-47
2023/04/16 01:56:25;;;;;;;11.17;4.50;;;7.70;99.90;;;;;;5033490;28;20182;-48
2023/04/16 01:58:51;;;;;;;9.10;5.03;;;7.70;99.90;;;;;;5033487;28;20181;-48
2023/04/16 02:01:17;;;;;;;6.80;4.23;;;7.70;99.90;;;;;;5015394;28;20192;-48
2023/04/16 02:03:43;;;;;;;7.63;4.77;;;7.70;99.90;;;;;;5034329;28;20182;-47
2023/04/16 02:06:08;;;;;;;12.23;4.37;;;7.70;99.90;;;;;;5037175;28;20189;-47
2023/04/16 02:08:34;;;;;;;8.03;5.20;;;7.70;99.90;;;;;;5037141;28;20212;-47
2023/04/16 02:11:00;;;;;;;11.17;5.37;;;7.80;99.90;;;;;;5037206;28;20209;-47
2023/04/16 02:13:25;;;;;;;11.47;6.13;;;7.70;99.90;;;;;;5037306;28;20655;-46
2023/04/16 02:15:51;;;;;;;11.53;5.33;;;7.70;99.90;;;;;;5037266;28;20227;-47
2023/04/16 02:18:17;;;;;;;10.23;5.80;;;7.70;99.90;;;;;;5037233;28;20193;-50
2023/04/16 02:20:45;;;;;;;12.67;5.97;;;7.80;99.90;;;;;;5037178;28;20268;-49
2023/04/16 02:23:11;;;;;;;11.63;5.77;;;7.80;99.90;;;;;;5037060;28;20576;-49
2023/04/16 02:25:40;;;;;;;8.70;5.83;;;7.80;99.90;;;;;;5036837;28;20256;-48
2023/04/16 02:28:09;;;;;;;9.67;5.17;;;7.80;99.90;;;;;;5037015;28;20272;-50
2023/04/16 02:30:35;;;;;;;9.70;6.10;;;7.80;99.90;;;;;;5036668;28;20274;-50
2023/04/16 02:33:04;;;;;;;9.70;4.83;;;7.70;99.90;;;;;;5036569;28;20692;-50
2023/04/16 02:35:33;;;;;;;11.43;6.20;;;7.80;99.90;;;;;;5036837;28;20185;-49
2023/04/16 02:37:59;;;;;;;14.57;5.63;;;7.80;99.90;;;;;;5036847;28;20264;-50
2023/04/16 02:40:25;;;;;;;14.60;6.27;;;7.80;99.90;;;;;;5036540;28;20686;-51
2023/04/16 02:42:52;;;;;;;11.30;5.63;;;7.80;99.90;;;;;;5036393;28;20203;-50
2023/04/16 02:45:18;;;;;;;10.20;5.93;;;7.80;99.90;;;;;;5036724;28;20187;-50
2023/04/16 02:47:44;;;;;;;8.90;5.53;;;7.80;99.90;;;;;;5036520;28;20189;-49
2023/04/16 02:50:09;;;;;;;10.93;5.40;;;7.80;99.90;;;;;;5036365;28;20166;-50
2023/04/16 02:52:35;;;;;;;11.97;6.30;;;7.80;99.90;;;;;;5036145;28;20382;-45
2023/04/16 02:55:01;;;;;;;9.50;5.10;;;7.80;99.90;;;;;;5036717;28;20209;-47
2023/04/16 02:57:26;;;;;;;11.97;6.30;;;7.80;99.90;;;;;;5036348;28;20591;-46
2023/04/16 02:59:52;;;;;;;18.23;6.33;;;7.80;99.90;;;;;;5036469;28;20168;-45
2023/04/16 03:02:17;;;;;;;8.73;5.33;;;7.80;99.90;;;;;;5018552;28;20257;-46
2023/04/16 03:04:43;;;;;;;12.30;5.63;;;7.80;99.90;;;;;;5036264;28;20169;-47
2023/04/16 03:07:10;;;;;;;10.27;5.70;;;7.80;99.90;;;;;;5036347;28;20221;-48
2023/04/16 03:09:35;;;;;;;13.80;6.17;;;7.80;99.90;;;;;;5036566;28;20186;-47
2023/04/16 03:12:01;;;;;;;11.93;6.03;;;7.80;99.90;;;;;;5036414;28;20301;-45
2023/04/16 03:14:27;;;;;;;15.87;6.43;;;7.80;99.90;;;;;;5036983;28;20175;-46
2023/04/16 03:16:52;;;;;;;16.90;6.57;;;7.80;99.90;;;;;;5037097;28;20207;-47
2023/04/16 03:19:18;;;;;;;11.03;5.53;;;7.80;99.90;;;;;;5043683;28;20179;-46
2023/04/16 03:21:43;;;;;;;11.53;5.63;;;7.80;99.90;;;;;;5045500;28;20208;-48
2023/04/16 03:24:09;;;;;;;16.33;6.77;;;7.80;99.90;;;;;;5035877;28;20185;-48
2023/04/16 03:26:34;;;;;;;16.43;6.17;;;7.80;99.90;;;;;;5036145;28;20177;-46
2023/04/16 03:29:03;;;;;;;14.37;6.80;;;7.80;99.90;;;;;;5035905;28;20185;-46
2023/04/16 03:31:29;;;;;;;10.23;5.50;;;7.80;99.90;;;;;;5035929;28;20221;-48
2023/04/16 03:33:54;;;;;;;12.67;6.07;;;7.80;99.90;;;;;;5036084;28;20549;-46
2023/04/16 03:36:21;;;;;;;15.07;7.07;;;7.70;99.90;;;;;;5035869;28;20195;-47
2023/04/16 03:38:47;;;;;;;12.73;6.37;;;7.70;99.90;;;;;;5035902;28;20236;-45
2023/04/16 03:41:13;;;;;;;11.03;6.03;;;7.80;99.90;;;;;;5035980;28;20580;-47
2023/04/16 03:43:38;;;;;;;15.20;7.27;;;7.70;99.90;;;;;;5036326;28;20196;-46
2023/04/16 03:46:04;;;;;;;9.63;6.40;;;7.70;99.90;;;;;;5035956;28;20226;-46
2023/04/16 03:48:30;;;;;;;14.33;6.20;;;7.70;99.90;;;;;;5035658;28;20205;-45
2023/04/16 03:50:55;;;;;;;10.27;6.10;;;7.70;99.90;;;;;;5035732;28;20201;-46
2023/04/16 03:53:21;;;;;;;7.20;5.07;;;7.70;99.90;;;;;;5035495;28;20198;-43
2023/04/16 03:55:52;;;;;;;10.10;6.53;;;7.70;99.90;;;;;;5036016;28;20510;-45
2023/04/16 03:58:18;;;;;;;10.23;6.50;;;7.70;99.90;;;;;;5036146;28;20196;-45
2023/04/16 04:00:44;;;;;;;10.57;6.10;;;7.70;99.90;;;;;;5036197;28;20171;-46
2023/04/16 04:03:10;;;;;;;10.33;5.80;;;7.70;99.90;;;;;;5035498;28;20658;-45
2023/04/16 04:05:40;;;;;;;11.37;6.80;;;7.70;99.90;;;;;;5037142;28;20177;-47
2023/04/16 04:08:06;;;;;;;14.17;7.70;;;7.70;99.90;;;;;;5038220;28;20280;-46
2023/04/16 04:10:33;;;;;;;9.87;6.40;;;7.70;99.90;;;;;;5038060;28;20177;-46
2023/04/16 04:12:59;;;;;;;11.10;6.60;;;7.70;99.90;;;;;;5039658;28;20214;-46
2023/04/16 04:15:25;;;;;;;11.27;6.37;;;7.70;99.90;;;;;;5034984;28;20178;-46
2023/04/16 04:17:50;;;;;;;8.40;6.93;;;7.70;99.90;;;;;;5034783;28;20272;-47
2023/04/16 04:20:16;;;;;;;9.77;6.00;;;7.70;99.90;;;;;;5035168;28;20184;-46
2023/04/16 04:22:41;;;;;;;11.20;6.60;;;7.70;99.90;;;;;;5034944;28;20235;-44
2023/04/16 04:25:09;;;;;;;10.83;6.67;;;7.70;99.90;;;;;;5034708;28;20178;-45
2023/04/16 04:27:35;;;;;;;10.20;6.37;;;7.80;99.90;;;;;;5034334;28;20315;-46
2023/04/16 04:30:02;;;;;;;8.70;6.30;;;7.70;99.90;;;;;;5034610;28;20186;-45
2023/04/16 04:32:27;;;;;;;11.10;6.63;;;7.70;99.90;;;;;;5034302;28;20221;-44
2023/04/16 04:34:53;;;;;;;8.57;6.33;;;7.80;99.90;;;;;;5034440;28;20544;-45
2023/04/16 04:37:19;;;;;;;11.60;6.83;;;7.70;99.90;;;;;;5034690;28;20329;-48
2023/04/16 04:39:45;;;;;;;13.10;6.60;;;7.80;99.90;;;;;;5034586;28;20176;-47
2023/04/16 04:42:10;;;;;;;10.10;7.20;;;7.80;99.90;;;;;;5034461;28;20678;-46
2023/04/16 04:44:36;;;;;;;10.07;6.53;;;7.80;99.90;;;;;;5034527;28;20267;-45
2023/04/16 04:47:01;;;;;;;8.67;5.63;;;7.80;99.90;;;;;;5034693;28;20231;-45
2023/04/16 04:49:27;;;;;;;9.50;6.13;;;7.80;99.90;;;;;;5034030;28;20205;-45
2023/04/16 04:51:52;;;;;;;9.83;5.90;;;7.80;99.90;;;;;;5034233;28;20225;-47
2023/04/16 04:54:18;;;;;;;9.70;6.20;;;7.80;99.90;;;;;;5034652;28;20193;-45
2023/04/16 04:56:46;;;;;;;9.10;6.70;;;7.80;99.90;;;;;;5034249;28;20188;-48
2023/04/16 04:59:12;;;;;;;7.97;6.00;;;7.80;99.90;;;;;;5034003;28;20228;-46
2023/04/16 05:01:38;;;;;;;15.40;6.13;;;7.80;99.90;;;;;;5034083;28;20601;-45
2023/04/16 05:04:04;;;;;;;11.07;6.70;;;7.80;99.90;;;;;;5016179;28;20206;-45
2023/04/16 05:06:30;;;;;;;9.80;6.40;;;7.80;99.90;;;;;;5033839;28;20185;-47
2023/04/16 05:08:55;;;;;;;9.83;6.23;;;7.90;99.90;;;;;;5033834;28;20201;-47
2023/04/16 05:11:21;;;;;;;11.03;6.53;;;7.90;99.90;;;;;;5033657;28;20295;-47
2023/04/16 05:13:47;;;;;;;9.43;5.97;;;7.90;99.90;;;;;;5016286;28;20706;-47
2023/04/16 05:16:12;;;;;;;11.00;7.40;;;7.90;99.90;;;;;;5033747;28;20179;-45
2023/04/16 05:18:38;;;;;;;7.67;5.97;;;7.90;99.90;;;;;;5033904;28;20182;-44
2023/04/16 05:21:04;;;;;;;9.87;6.67;;;7.90;99.90;;;;;;5034091;28;20191;-46
2023/04/16 05:23:29;;;;;;;9.17;5.97;;;7.90;99.90;;;;;;5033848;28;20573;-45
2023/04/16 05:25:55;;;;;;;9.90;6.20;;;8.00;99.90;;;;;;5033593;28;20685;-44
2023/04/16 05:28:20;;;;;;;9.50;6.97;;;7.90;99.90;;;;;;5033558;28;20184;-46
2023/04/16 05:30:46;;;;;;;11.33;6.57;;;8.00;99.90;;;;;;5033719;28;20204;-46
2023/04/16 05:33:11;;;;;;;10.23;6.33;;;8.00;99.90;;;;;;5033461;28;20194;-47
2023/04/16 05:35:37;;;;;;;8.60;6.50;;;8.00;99.90;;;;;;5033725;28;20665;-44
2023/04/16 05:38:05;;;;;;;8.80;6.10;;;8.00;99.90;;;;;;5033442;28;20180;-45
2023/04/16 05:40:31;;;;;;;11.20;6.90;;;8.00;99.90;;;;;;5033570;28;20256;-46
2023/04/16 05:42:57;;;;;;;10.80;6.90;;;8.00;99.90;;;;;;5034441;28;20695;-45
2023/04/16 05:45:22;;;;;;;11.70;8.07;;;8.00;99.90;;;;;;5034558;28;20214;-45
2023/04/16 05:47:48;;;;;;;10.93;6.63;;;8.00;99.90;;;;;;5033887;28;20672;-50
2023/04/16 05:50:14;;;;;;;10.63;7.07;;;8.00;99.90;;;;;;5034086;28;20214;-51
2023/04/16 05:52:39;;;;;;;12.10;7.53;;;8.00;99.90;;;;;;5033396;28;20220;-51
2023/04/16 05:55:06;;;;;;;13.77;8.60;;;8.10;99.90;;;;;;5033645;28;20539;-50
2023/04/16 05:57:32;;;;;;;13.17;8.20;;;8.10;99.90;;;;;;5033316;28;20243;-52
2023/04/16 05:59:57;;;;;;;10.97;6.67;;;8.10;99.90;;;;;;5033299;28;20176;-51
2023/04/16 06:02:23;;;;;;;11.13;7.63;;;8.10;99.90;;;;;;5033172;28;20204;-52
2023/04/16 06:04:49;;;;;;;16.33;8.70;;;8.10;99.90;;;;;;5033950;28;20185;-52
2023/04/16 06:07:14;;;;;;;15.60;8.37;;;8.10;99.90;;;;;;5033493;28;20544;-51
2023/04/16 06:09:40;;;;;;;16.53;9.07;;;8.10;99.90;;;;;;5033238;28;20193;-51
2023/04/16 06:12:06;;;;;;;14.93;8.47;;;8.10;99.90;;;;;;5033939;28;20217;-48
2023/04/16 06:14:32;;;;;;;20.07;10.47;;;8.20;99.90;;;;;;5034273;28;20192;-48
2023/04/16 06:16:57;;;;;;;23.23;12.63;;;8.20;99.90;;;;;;5034115;28;20173;-47
2023/04/16 06:19:23;;;;;;;23.53;12.03;;;8.20;99.90;;;;;;5034343;28;20291;-49
2023/04/16 06:21:49;;;;;;;23.83;13.13;;;8.20;99.90;;;;;;5034036;28;20211;-49
2023/04/16 06:24:17;;;;;;;20.67;11.80;;;8.20;99.90;;;;;;5033735;28;20219;-48
2023/04/16 06:26:43;;;;;;;26.33;12.80;;;8.20;99.90;;;;;;5034330;28;20279;-50
2023/04/16 06:29:08;;;;;;;30.97;12.80;;;8.20;99.90;;;;;;5020029;28;20181;-48
2023/04/16 06:31:34;;;;;;;26.50;13.13;;;8.20;99.90;;;;;;5035964;28;20214;-49
2023/04/16 06:34:00;;;;;;;21.07;12.73;;;8.30;99.90;;;;;;5035843;28;20173;-47
2023/04/16 06:36:26;;;;;;;25.70;13.27;;;8.30;99.90;;;;;;5051434;28;20185;-48
2023/04/16 06:38:52;;;;;;;32.07;15.00;;;8.30;99.90;;;;;;5049361;28;20177;-48
2023/04/16 06:41:17;;;;;;;26.67;13.47;;;8.30;99.90;;;;;;5033287;28;20706;-48
2023/04/16 06:43:43;;;;;;;24.90;13.80;;;8.30;99.90;;;;;;5033526;28;20208;-49
2023/04/16 06:46:09;;;;;;;24.30;11.37;;;8.30;99.90;;;;;;5033249;28;20205;-49
2023/04/16 06:48:34;;;;;;;28.60;15.57;;;8.30;99.90;;;;;;5032670;28;20252;-49
2023/04/16 06:51:00;;;;;;;34.80;18.30;;;8.30;99.90;;;;;;5034413;28;20254;-50
2023/04/16 06:53:26;;;;;;;27.33;14.77;;;8.30;99.90;;;;;;5036742;28;20188;-49
2023/04/16 06:55:51;;;;;;;31.63;14.27;;;8.30;99.90;;;;;;5036696;28;20529;-47
2023/04/16 06:58:17;;;;;;;26.93;14.17;;;8.30;99.90;;;;;;5036340;28;20654;-47
2023/04/16 07:00:42;;;;;;;30.90;17.23;;;8.40;99.90;;;;;;5036546;28;20206;-48
2023/04/16 07:03:08;;;;;;;26.53;14.63;;;8.40;99.90;;;;;;5036244;28;20594;-49
2023/04/16 07:05:33;;;;;;;26.17;13.03;;;8.40;99.90;;;;;;5036346;28;20206;-50
2023/04/16 07:07:59;;;;;;;27.60;13.77;;;8.40;99.90;;;;;;5036714;28;20236;-49
2023/04/16 07:10:25;;;;;;;30.27;16.23;;;8.40;99.90;;;;;;5036244;28;20228;-48
2023/04/16 07:12:50;;;;;;;29.37;14.17;;;8.40;99.90;;;;;;5036158;28;20230;-50
2023/04/16 07:15:16;;;;;;;24.63;13.27;;;8.40;99.90;;;;;;5036266;28;20184;-48
2023/04/16 07:17:41;;;;;;;21.13;11.87;;;8.40;99.90;;;;;;5036165;28;20505;-48
2023/04/16 07:20:08;;;;;;;26.10;14.03;;;8.40;99.90;;;;;;5035880;28;20181;-49
2023/04/16 07:22:33;;;;;;;30.43;16.50;;;8.40;99.90;;;;;;5035690;28;20205;-50
2023/04/16 07:24:59;;;;;;;29.07;13.87;;;8.40;99.90;;;;;;5035747;28;20270;-50
2023/04/16 07:27:24;;;;;;;25.53;14.73;;;8.50;99.90;;;;;;5017989;28;20187;-50
2023/04/16 07:29:50;;;;;;;32.93;16.23;;;8.40;99.90;;;;;;5035706;28;20185;-49
2023/04/16 07:32:15;;;;;;;27.60;13.83;;;8.50;99.90;;;;;;5035728;28;20216;-49
2023/04/16 07:34:41;;;;;;;28.73;16.03;;;8.50;99.90;;;;;;5035624;28;20236;-48
2023/04/16 07:37:07;;;;;;;31.63;15.87;;;8.40;99.90;;;;;;5035581;28;20559;-50
2023/04/16 07:39:32;;;;;;;29.40;14.73;;;8.40;99.90;;;;;;5036063;28;20205;-50
2023/04/16 07:41:58;;;;;;;31.33;15.47;;;8.50;99.90;;;;;;5035384;28;20204;-50
2023/04/16 07:44:24;;;;;;;29.87;15.20;;;8.50;99.90;;;;;;5035642;28;20179;-49
2023/04/16 07:46:49;;;;;;;22.80;13.53;;;8.50;99.90;;;;;;5035588;28;20182;-49
2023/04/16 07:49:15;;;;;;;26.70;14.40;;;8.50;99.90;;;;;;5035309;28;20561;-51
2023/04/16 07:51:40;;;;;;;30.00;14.93;;;8.50;99.90;;;;;;5035294;28;20698;-48
2023/04/16 07:54:06;;;;;;;24.40;14.23;;;8.50;99.90;;;;;;5035665;28;20180;-50
2023/04/16 07:56:31;;;;;;;25.33;14.07;;;8.50;99.90;;;;;;5035346;28;20174;-49
2023/04/16 07:58:57;;;;;;;29.40;15.40;;;8.50;99.90;;;;;;5035990;28;20180;-50
2023/04/16 08:01:22;;;;;;;28.73;13.73;;;8.50;99.90;;;;;;5034820;28;20197;-51
2023/04/16 08:03:48;;;;;;;28.30;15.77;;;8.60;99.90;;;;;;5035110;28;20550;-51
2023/04/16 08:06:14;;;;;;;33.23;17.10;;;8.60;99.90;;;;;;5035008;28;20585;-51
2023/04/16 08:08:39;;;;;;;25.43;13.43;;;8.60;99.90;;;;;;5035198;28;20698;-51
2023/04/16 08:11:05;;;;;;;29.87;16.27;;;8.60;99.90;;;;;;5035051;28;20201;-49
2023/04/16 08:13:30;;;;;;;29.37;14.43;;;8.60;99.90;;;;;;5035188;28;20571;-51
2023/04/16 08:15:56;;;;;;;27.00;13.70;;;8.60;99.90;;;;;;5035116;28;20548;-51
2023/04/16 08:18:21;;;;;;;25.63;13.77;;;8.60;99.90;;;;;;5034824;28;20702;-50
2023/04/16 08:20:47;;;;;;;29.83;16.50;;;8.60;99.90;;;;;;5034776;28;20223;-49
2023/04/16 08:23:12;;;;;;;25.70;14.47;;;8.60;99.90;;;;;;5034637;28;20200;-50
2023/04/16 08:25:38;;;;;;;32.63;16.67;;;8.70;99.90;;;;;;5035026;28;20189;-52
2023/04/16 08:28:04;;;;;;;34.43;17.23;;;8.70;99.90;;;;;;5034540;28;20233;-49
2023/04/16 08:30:29;;;;;;;26.60;13.47;;;8.70;99.90;;;;;;5034975;28;20649;-49
2023/04/16 08:32:55;;;;;;;28.87;14.30;;;8.70;99.90;;;;;;5034762;28;20193;-50
2023/04/16 08:35:21;;;;;;;31.30;16.80;;;8.80;99.90;;;;;;5017733;28;20172;-51
2023/04/16 08:37:47;;;;;;;30.40;15.00;;;8.80;99.90;;;;;;5035644;28;20235;-51
2023/04/16 08:40:13;;;;;;;31.23;15.17;;;8.90;99.90;;;;;;5035204;28;20173;-50
2023/04/16 08:42:43;;;;;;;25.90;14.20;;;8.90;99.90;;;;;;5034650;28;20254;-51
2023/04/16 08:45:13;;;;;;;31.77;14.87;;;8.90;99.90;;;;;;5035620;28;20244;-48
2023/04/16 08:47:40;;;;;;;30.43;14.60;;;8.90;99.90;;;;;;5036631;28;20165;-50
2023/04/16 08:50:10;;;;;;;26.30;13.80;;;8.90;99.90;;;;;;5038189;28;20232;-51
2023/04/16 08:52:41;;;;;;;25.37;13.23;;;9.00;99.90;;;;;;5034351;28;20216;-50
2023/04/16 08:55:15;;;;;;;27.83;16.50;;;8.90;99.90;;;;;;5034705;28;20211;-51
2023/04/16 08:57:52;;;;;;;26.00;15.70;;;8.90;99.90;;;;;;5034137;28;20258;-48
2023/04/16 09:00:18;;;;;;;24.40;14.03;;;8.90;99.90;;;;;;5034974;28;20563;-49
2023/04/16 09:02:44;;;;;;;27.33;13.63;;;9.00;99.90;;;;;;5034094;28;20204;-49
2023/04/16 09:05:12;;;;;;;26.77;14.70;;;9.00;99.90;;;;;;5034189;28;20179;-49
2023/04/16 09:07:38;;;;;;;27.47;14.27;;;9.00;99.90;;;;;;5034107;28;20189;-50
2023/04/16 09:10:07;;;;;;;32.60;17.30;;;9.00;99.90;;;;;;5033881;28;20195;-50
2023/04/16 09:12:34;;;;;;;26.93;14.87;;;9.00;99.90;;;;;;5033492;28;20212;-49
2023/04/16 09:15:02;;;;;;;28.17;15.67;;;9.10;99.90;;;;;;5033580;28;20187;-50
2023/04/16 09:17:27;;;;;;;30.27;17.57;;;9.10;99.90;;;;;;5033961;28;20188;-51
2023/04/16 09:19:53;;;;;;;30.07;14.87;;;9.10;99.90;;;;;;5033745;28;20173;-51
2023/04/16 09:22:19;;;;;;;27.53;16.00;;;9.10;99.90;;;;;;5033888;28;20671;-49
2023/04/16 09:24:45;;;;;;;35.37;18.60;;;9.10;99.90;;;;;;5033662;28;20171;-50
2023/04/16 09:27:11;;;;;;;36.97;17.33;;;9.10;99.90;;;;;;5033618;28;20191;-49
2023/04/16 09:29:40;;;;;;;33.43;19.87;;;9.10;99.90;;;;;;5033616;28;20176;-49
2023/04/16 09:32:07;;;;;;;31.10;17.23;;;9.10;99.90;;;;;;5033557;28;20229;-50
2023/04/16 09:34:34;;;;;;;35.83;19.37;;;9.10;99.90;;;;;;5033680;28;20177;-51
2023/04/16 09:37:16;;;;;;;34.17;18.47;;;9.10;99.90;;;;;;5033398;28;20200;-49
2023/04/16 09:39:42;;;;;;;33.97;18.63;;;9.20;99.90;;;;;;5033777;28;20529;-51
2023/04/16 09:42:09;;;;;;;37.70;20.23;;;9.40;99.90;;;;;;5033454;28;20198;-49
2023/04/16 09:44:38;;;;;;;40.70;21.13;;;9.40;99.90;;;;;;5033314;28;20179;-51
2023/04/16 09:47:08;;;;;;;42.03;19.83;;;9.40;99.90;;;;;;5033283;28;20188;-50
2023/04/16 09:49:37;;;;;;;34.40;18.40;;;9.40;99.90;;;;;;5033198;28;20220;-51
2023/04/16 09:52:08;;;;;;;33.10;17.67;;;9.40;99.90;;;;;;5033141;28;20257;-50
2023/04/16 09:54:33;;;;;;;35.23;20.10;;;9.50;99.90;;;;;;5036508;28;20165;-49
2023/04/16 09:57:00;;;;;;;33.50;19.47;;;9.50;99.90;;;;;;5029826;28;20211;-50
2023/04/16 09:59:30;;;;;;;34.20;17.83;;;9.50;99.90;;;;;;5043278;28;20231;-51
2023/04/16 10:01:59;;;;;;;43.53;26.60;;;9.60;99.90;;;;;;5034018;28;20303;-51
2023/04/16 10:04:25;;;;;;;38.30;18.90;;;9.60;99.90;;;;;;5033526;28;20268;-50
2023/04/16 10:07:12;;;;;;;36.93;21.03;;;9.60;99.90;;;;;;5033333;28;20755;-51
2023/04/16 10:09:38;;;;;;;36.50;20.93;;;9.70;99.90;;;;;;5033393;28;20191;-49
2023/04/16 10:12:04;;;;;;;36.57;20.03;;;9.60;99.90;;;;;;5033285;28;20225;-50
2023/04/16 10:14:30;;;;;;;36.13;20.87;;;9.70;99.90;;;;;;5033287;28;20188;-51
2023/04/16 10:16:56;;;;;;;40.73;21.33;;;9.80;99.90;;;;;;5033851;28;20180;-51
2023/04/16 10:19:23;;;;;;;31.73;18.50;;;9.90;99.90;;;;;;5033046;28;20260;-51
2023/04/16 10:21:49;;;;;;;36.47;19.80;;;10.00;99.90;;;;;;5032921;28;20216;-49
2023/04/16 10:24:16;;;;;;;32.80;18.73;;;10.10;99.90;;;;;;5033526;28;20268;-50
2023/04/16 10:26:43;;;;;;;35.83;18.77;;;10.20;99.90;;;;;;5035948;28;20168;-52
2023/04/16 10:29:10;;;;;;;31.20;17.87;;;10.30;99.90;;;;;;5037048;28;20194;-52
2023/04/16 10:31:38;;;;;;;37.63;19.70;;;10.40;99.90;;;;;;5036618;28;20220;-52
2023/04/16 10:34:05;;;;;;;34.17;17.80;;;10.50;99.90;;;;;;5036901;28;20180;-50
2023/04/16 10:36:35;;;;;;;34.60;18.20;;;10.60;99.90;;;;;;5036667;28;20233;-53
2023/04/16 10:39:01;;;;;;;36.53;18.93;;;10.70;99.90;;;;;;5036667;28;20185;-49
2023/04/16 10:41:27;;;;;;;37.17;19.03;;;10.80;99.90;;;;;;5036508;28;20267;-51
2023/04/16 10:44:02;;;;;;;32.53;18.73;;;10.90;99.90;;;;;;5036479;28;20185;-52
2023/04/16 10:46:32;;;;;;;33.63;19.20;;;11.00;99.90;;;;;;5036829;28;20262;-50
2023/04/16 10:49:12;;;;;;;32.27;18.13;;;11.20;99.90;;;;;;5036469;28;20587;-52
2023/04/16 10:51:37;;;;;;;34.23;19.00;;;11.30;99.90;;;;;;5036688;28;20758;-50
2023/04/16 10:54:11;;;;;;;28.77;17.47;;;11.40;99.90;;;;;;5036964;28;20216;-51
2023/04/16 10:56:37;;;;;;;26.10;14.83;;;11.50;99.90;;;;;;5037152;28;20641;-49
2023/04/16 10:59:08;;;;;;;27.83;17.23;;;11.60;99.90;;;;;;5036998;28;20180;-51
2023/04/16 11:01:54;;;;;;;29.37;17.17;;;11.80;99.90;;;;;;5036432;28;20200;-50
2023/04/16 11:04:20;;;;;;;29.13;16.23;;;11.80;99.90;;;;;;5036138;28;20597;-51
2023/04/16 11:07:18;;;;;;;29.80;16.33;;;11.80;99.90;;;;;;5036117;28;20262;-51
2023/04/16 11:10:01;;;;;;;24.83;15.63;;;11.90;99.90;;;;;;4982605;28;20201;-50
2023/04/16 11:12:37;;;;;;;27.37;15.23;;;11.90;99.90;;;;;;5036042;28;20212;-50
2023/04/16 11:15:11;;;;;;;24.80;15.70;;;12.10;99.90;;;;;;5036345;28;20165;-51
2023/04/16 11:17:50;;;;;;;23.67;14.77;;;12.30;99.90;;;;;;5036323;28;20189;-50
2023/04/16 11:20:21;;;;;;;24.30;13.30;;;12.40;99.90;;;;;;5036256;28;20653;-49
2023/04/16 11:22:53;;;;;;;21.57;13.30;;;12.50;99.90;;;;;;5035749;28;20295;-49
2023/04/16 11:25:29;;;;;;;21.30;13.30;;;12.60;99.90;;;;;;5036157;28;20192;-50
2023/04/16 11:27:57;;;;;;;21.67;12.83;;;12.60;99.90;;;;;;5036033;28;20176;-49
2023/04/16 11:30:32;;;;;;;21.13;13.17;;;12.60;99.90;;;;;;5035987;28;20216;-51
2023/04/16 11:33:00;;;;;;;18.63;12.50;;;12.60;99.90;;;;;;5035515;28;20216;-50
2023/04/16 11:35:26;;;;;;;19.07;11.60;;;12.60;99.90;;;;;;5018708;28;20192;-49
2023/04/16 11:37:55;;;;;;;17.73;13.03;;;12.70;99.90;;;;;;5035274;28;20173;-51
2023/04/16 11:40:21;;;;;;;18.57;12.37;;;12.80;99.90;;;;;;5035565;28;20645;-50
2023/04/16 11:42:46;;;;;;;15.47;11.10;;;12.80;99.90;;;;;;5035630;28;20283;-49
2023/04/16 11:45:12;;;;;;;21.23;12.73;;;12.80;99.90;;;;;;5036005;28;20255;-51
2023/04/16 11:47:50;;;;;;;17.80;11.90;;;12.80;99.90;;;;;;5035445;28;20644;-49
2023/04/16 11:50:21;;;;;;;16.30;11.13;;;12.80;99.90;;;;;;5035602;28;20230;-50
2023/04/16 11:52:47;;;;;;;17.13;10.93;;;12.80;99.90;;;;;;5035211;28;20791;-49
2023/04/16 11:55:14;;;;;;;17.77;11.53;;;12.80;99.90;;;;;;5035559;28;20264;-51
2023/04/16 11:57:40;;;;;;;19.83;12.33;;;12.80;99.90;;;;;;5035121;28;20177;-49
2023/04/16 12:00:09;;;;;;;16.03;11.67;;;12.90;99.90;;;;;;5035142;28;20173;-50
2023/04/16 12:02:40;;;;;;;17.80;12.23;;;12.90;99.90;;;;;;5035411;28;20566;-51
2023/04/16 12:05:26;;;;;;;17.93;11.90;;;13.00;99.90;;;;;;5035296;28;20619;-50
2023/04/16 12:07:51;;;;;;;25.37;15.53;;;13.10;99.90;;;;;;5035519;28;20157;-50
2023/04/16 12:10:17;;;;;;;17.27;12.60;;;13.00;99.90;;;;;;5035293;28;20671;-49
2023/04/16 12:12:43;;;;;;;18.30;12.00;;;13.00;99.90;;;;;;5034726;28;20216;-49
2023/04/16 12:15:09;;;;;;;18.37;11.70;;;13.10;99.90;;;;;;5035051;28;20181;-51
2023/04/16 12:17:35;;;;;;;16.63;11.37;;;13.10;99.90;;;;;;5034796;28;20181;-48
2023/04/16 12:20:07;;;;;;;16.27;10.77;;;13.10;99.90;;;;;;5035010;28;20181;-50
2023/04/16 12:22:34;;;;;;;16.77;11.40;;;13.10;99.90;;;;;;5034779;28;20204;-49
2023/04/16 12:25:02;;;;;;;23.07;11.67;;;13.00;99.90;;;;;;5034603;28;20644;-49
2023/04/16 12:27:54;;;;;;;19.37;11.03;;;12.90;99.90;;;;;;5034954;28;20454;-52
2023/04/16 12:30:29;;;;;;;17.67;12.00;;;12.90;99.90;;;;;;5034607;28;20201;-51
2023/04/16 12:33:15;;;;;;;15.30;11.53;;;12.90;99.90;;;;;;5034618;28;20568;-49
2023/04/16 12:35:42;;;;;;;17.23;11.20;;;12.80;99.90;;;;;;5034399;28;20172;-50
2023/04/16 12:38:08;;;;;;;18.00;11.73;;;12.80;99.90;;;;;;5034423;28;20177;-49
2023/04/16 12:40:34;;;;;;;16.87;11.90;;;12.80;99.90;;;;;;5034631;28;20534;-49
2023/04/16 12:43:00;;;;;;;17.37;11.33;;;12.80;99.90;;;;;;5034454;28;20201;-49